THY9YH LTFM-LIMC
Flight info
| Callsign | THY9YH |
|---|---|
| Flight time | 3h 22m |
| Altitude | 38000 |
| Route | VADEN1D/35L VADEN N618 GOL Y520 LUKOV Q8 DOLAP DCT OBLAK DCT VEBAR DCT UZVEZ DCT ELTIB DCT PEVAL DCT ADOSA/N0438F390 DCT IDREK DCT ELTAR DCT NOBMI DCT PEXUG |
| Aircraft | A20N/M-SDE2E3FGHIRWXY/LB1 |
Departure
| Time | 2026-05-05 18:18 |
|---|---|
| Airport | İstanbul Airport (LTFM) |
Arrival
| Time | 2026-05-05 21:40 |
|---|---|
| Airport | Milan Malpensa International Airport (LIMC) |
| Time | Latitude | Longitude | Altitude | Speed | Heading |
|---|---|---|---|---|---|
| 2026-05-05 17:51 | 41.26483 | 28.73513 | 297 ft | 0 kts | 71° |
| 2026-05-05 18:08 | 41.26480 | 28.73498 | 297 ft | 2 kts | 71° |
| 2026-05-05 18:08 | 41.26477 | 28.73486 | 297 ft | 2 kts | 70° |
| 2026-05-05 18:09 | 41.26469 | 28.73469 | 297 ft | 2 kts | 51° |
| 2026-05-05 18:09 | 41.26459 | 28.73454 | 297 ft | 2 kts | 37° |
| 2026-05-05 18:09 | 41.26446 | 28.73444 | 297 ft | 2 kts | 22° |
| 2026-05-05 18:09 | 41.26432 | 28.73438 | 297 ft | 2 kts | 7° |
| 2026-05-05 18:10 | 41.26416 | 28.73438 | 298 ft | 2 kts | 353° |
| 2026-05-05 18:10 | 41.26406 | 28.73441 | 298 ft | 0 kts | 342° |
| 2026-05-05 18:10 | 41.26400 | 28.73443 | 298 ft | 0 kts | 340° |
| 2026-05-05 18:12 | 41.26402 | 28.73443 | 298 ft | 0 kts | 340° |
| 2026-05-05 18:13 | 41.26412 | 28.73438 | 298 ft | 1 kts | 340° |
| 2026-05-05 18:13 | 41.26428 | 28.73430 | 298 ft | 3 kts | 341° |
| 2026-05-05 18:13 | 41.26450 | 28.73420 | 298 ft | 4 kts | 341° |
| 2026-05-05 18:13 | 41.26485 | 28.73405 | 297 ft | 6 kts | 342° |
| 2026-05-05 18:14 | 41.26532 | 28.73385 | 297 ft | 8 kts | 342° |
| 2026-05-05 18:14 | 41.26584 | 28.73349 | 298 ft | 8 kts | 304° |
| 2026-05-05 18:14 | 41.26591 | 28.73287 | 300 ft | 5 kts | 268° |
| 2026-05-05 18:14 | 41.26590 | 28.73250 | 301 ft | 2 kts | 269° |
| 2026-05-05 18:15 | 41.26590 | 28.73235 | 302 ft | 1 kts | 269° |
| 2026-05-05 18:15 | 41.26590 | 28.73222 | 303 ft | 2 kts | 269° |
| 2026-05-05 18:15 | 41.26590 | 28.73193 | 304 ft | 3 kts | 269° |
| 2026-05-05 18:15 | 41.26589 | 28.73149 | 305 ft | 5 kts | 269° |
| 2026-05-05 18:16 | 41.26589 | 28.73091 | 308 ft | 6 kts | 269° |
| 2026-05-05 18:16 | 41.26588 | 28.73041 | 309 ft | 4 kts | 269° |
| 2026-05-05 18:16 | 41.26588 | 28.72987 | 309 ft | 6 kts | 269° |
| 2026-05-05 18:16 | 41.26588 | 28.72914 | 309 ft | 9 kts | 269° |
| 2026-05-05 18:17 | 41.26587 | 28.72811 | 309 ft | 12 kts | 270° |
| 2026-05-05 18:17 | 41.26586 | 28.72679 | 309 ft | 15 kts | 269° |
| 2026-05-05 18:17 | 41.26586 | 28.72555 | 309 ft | 10 kts | 276° |
| 2026-05-05 18:17 | 41.26646 | 28.72521 | 308 ft | 12 kts | 360° |
| 2026-05-05 18:18 | 41.26899 | 28.72516 | 301 ft | 73 kts | 359° |
| 2026-05-05 18:18 | 41.27652 | 28.72501 | 274 ft | 140 kts | 359° |
| 2026-05-05 18:18 | 41.28777 | 28.72483 | 424 ft | 176 kts | 359° |
| 2026-05-05 18:18 | 41.29999 | 28.72481 | 1098 ft | 175 kts | 0° |
| 2026-05-05 18:19 | 41.31203 | 28.72504 | 1885 ft | 173 kts | 2° |
| 2026-05-05 18:19 | 41.32343 | 28.72222 | 2580 ft | 173 kts | 326° |
| 2026-05-05 18:19 | 41.33134 | 28.71038 | 3229 ft | 174 kts | 303° |
| 2026-05-05 18:19 | 41.33752 | 28.69601 | 3656 ft | 188 kts | 301° |
| 2026-05-05 18:20 | 41.34428 | 28.68013 | 4054 ft | 205 kts | 302° |
| 2026-05-05 18:20 | 41.35197 | 28.66315 | 4467 ft | 222 kts | 303° |
| 2026-05-05 18:20 | 41.36051 | 28.64513 | 4820 ft | 244 kts | 304° |
| 2026-05-05 18:20 | 41.37019 | 28.62531 | 5301 ft | 263 kts | 305° |
| 2026-05-05 18:21 | 41.38029 | 28.60489 | 5979 ft | 272 kts | 305° |
| 2026-05-05 18:21 | 41.39074 | 28.58394 | 6822 ft | 276 kts | 306° |
| 2026-05-05 18:21 | 41.40137 | 28.56269 | 7640 ft | 280 kts | 306° |
| 2026-05-05 18:21 | 41.41222 | 28.54109 | 8439 ft | 285 kts | 306° |
| 2026-05-05 18:22 | 41.42326 | 28.51913 | 9225 ft | 290 kts | 306° |
| 2026-05-05 18:22 | 41.43465 | 28.49651 | 10009 ft | 295 kts | 306° |
| 2026-05-05 18:22 | 41.44606 | 28.47384 | 10643 ft | 305 kts | 306° |
| 2026-05-05 18:22 | 41.45834 | 28.44946 | 11108 ft | 321 kts | 306° |
| 2026-05-05 18:23 | 41.47095 | 28.42437 | 11803 ft | 328 kts | 306° |
| 2026-05-05 18:23 | 41.48362 | 28.39914 | 12554 ft | 332 kts | 306° |
| 2026-05-05 18:23 | 41.49650 | 28.37344 | 13284 ft | 337 kts | 305° |
| 2026-05-05 18:23 | 41.50961 | 28.34729 | 14006 ft | 342 kts | 304° |
| 2026-05-05 18:24 | 41.52275 | 28.32097 | 14707 ft | 346 kts | 304° |
| 2026-05-05 18:24 | 41.53615 | 28.29406 | 15403 ft | 350 kts | 304° |
| 2026-05-05 18:24 | 41.54985 | 28.26656 | 16093 ft | 354 kts | 304° |
| 2026-05-05 18:24 | 41.56348 | 28.23920 | 16759 ft | 358 kts | 303° |
| 2026-05-05 18:25 | 41.57745 | 28.21118 | 17422 ft | 362 kts | 303° |
| 2026-05-05 18:25 | 41.58668 | 28.19266 | 17850 ft | 364 kts | 303° |
| 2026-05-05 18:25 | 41.60557 | 28.15471 | 18700 ft | 369 kts | 303° |
| 2026-05-05 18:25 | 41.61993 | 28.12585 | 19326 ft | 373 kts | 303° |
| 2026-05-05 18:26 | 41.63435 | 28.09684 | 19935 ft | 376 kts | 302° |
| 2026-05-05 18:26 | 41.64912 | 28.06706 | 20274 ft | 388 kts | 302° |
| 2026-05-05 18:26 | 41.66427 | 28.03647 | 20517 ft | 402 kts | 302° |
| 2026-05-05 18:26 | 41.68000 | 28.00469 | 20753 ft | 415 kts | 302° |
| 2026-05-05 18:27 | 41.69631 | 27.97170 | 20977 ft | 427 kts | 302° |
| 2026-05-05 18:27 | 41.71327 | 27.93736 | 21197 ft | 439 kts | 302° |
| 2026-05-05 18:27 | 41.73018 | 27.90310 | 21476 ft | 448 kts | 302° |
| 2026-05-05 18:27 | 41.74742 | 27.86814 | 21945 ft | 451 kts | 302° |
| 2026-05-05 18:28 | 41.78199 | 27.79797 | 22922 ft | 456 kts | 302° |
| 2026-05-05 18:28 | 41.79944 | 27.76249 | 23382 ft | 459 kts | 302° |
| 2026-05-05 18:28 | 41.81710 | 27.72651 | 23839 ft | 461 kts | 301° |
| 2026-05-05 18:29 | 41.83456 | 27.69091 | 24274 ft | 463 kts | 301° |
| 2026-05-05 18:29 | 41.85245 | 27.65440 | 24701 ft | 466 kts | 301° |
| 2026-05-05 18:29 | 41.87021 | 27.61808 | 25113 ft | 468 kts | 301° |
| 2026-05-05 18:29 | 41.88803 | 27.58162 | 25510 ft | 470 kts | 301° |
| 2026-05-05 18:30 | 41.90578 | 27.54527 | 25887 ft | 472 kts | 301° |
| 2026-05-05 18:30 | 41.92384 | 27.50822 | 26250 ft | 473 kts | 301° |
| 2026-05-05 18:30 | 41.94177 | 27.47137 | 26593 ft | 475 kts | 301° |
| 2026-05-05 18:30 | 41.95988 | 27.43416 | 26916 ft | 477 kts | 301° |
| 2026-05-05 18:31 | 41.97814 | 27.39656 | 27262 ft | 477 kts | 301° |
| 2026-05-05 18:31 | 41.99614 | 27.35947 | 27713 ft | 475 kts | 301° |
| 2026-05-05 18:31 | 42.01374 | 27.32314 | 28176 ft | 473 kts | 300° |
| 2026-05-05 18:31 | 42.03156 | 27.28625 | 28635 ft | 471 kts | 300° |
| 2026-05-05 18:32 | 42.04955 | 27.24958 | 29079 ft | 469 kts | 301° |
| 2026-05-05 18:32 | 42.06879 | 27.21408 | 29517 ft | 469 kts | 304° |
| 2026-05-05 18:32 | 42.08931 | 27.18035 | 29943 ft | 468 kts | 308° |
| 2026-05-05 18:32 | 42.11079 | 27.14767 | 30359 ft | 467 kts | 309° |
| 2026-05-05 18:33 | 42.13276 | 27.11504 | 30756 ft | 466 kts | 309° |
| 2026-05-05 18:33 | 42.15434 | 27.08306 | 31170 ft | 463 kts | 309° |
| 2026-05-05 18:33 | 42.17607 | 27.05067 | 31642 ft | 459 kts | 309° |
| 2026-05-05 18:33 | 42.19721 | 27.01899 | 32129 ft | 454 kts | 309° |
| 2026-05-05 18:34 | 42.21821 | 26.98739 | 32615 ft | 449 kts | 309° |
| 2026-05-05 18:34 | 42.23871 | 26.95642 | 33082 ft | 444 kts | 309° |
| 2026-05-05 18:34 | 42.25901 | 26.92564 | 33618 ft | 437 kts | 309° |
| 2026-05-05 18:34 | 42.27915 | 26.89513 | 34047 ft | 433 kts | 309° |
| 2026-05-05 18:35 | 42.29912 | 26.86485 | 34350 ft | 431 kts | 309° |
| 2026-05-05 18:35 | 42.31894 | 26.83476 | 34570 ft | 432 kts | 309° |
| 2026-05-05 18:35 | 42.33901 | 26.80428 | 34746 ft | 433 kts | 310° |
| 2026-05-05 18:35 | 42.35898 | 26.77391 | 34920 ft | 434 kts | 309° |
| 2026-05-05 18:36 | 42.37899 | 26.74344 | 35094 ft | 434 kts | 309° |
| 2026-05-05 18:36 | 42.39891 | 26.71307 | 35261 ft | 435 kts | 309° |
| 2026-05-05 18:36 | 42.41909 | 26.68226 | 35414 ft | 436 kts | 309° |
| 2026-05-05 18:36 | 42.43919 | 26.65153 | 35561 ft | 436 kts | 309° |
| 2026-05-05 18:37 | 42.45922 | 26.62089 | 35707 ft | 437 kts | 309° |
| 2026-05-05 18:37 | 42.47921 | 26.59024 | 35846 ft | 437 kts | 309° |
| 2026-05-05 18:37 | 42.49844 | 26.55839 | 35983 ft | 437 kts | 306° |
| 2026-05-05 18:37 | 42.51637 | 26.52482 | 36032 ft | 437 kts | 302° |
| 2026-05-05 18:38 | 42.54717 | 26.45440 | 36038 ft | 436 kts | 296° |
| 2026-05-05 18:38 | 42.57152 | 26.37921 | 36028 ft | 435 kts | 289° |
| 2026-05-05 18:39 | 42.59135 | 26.30196 | 36019 ft | 435 kts | 288° |
| 2026-05-05 18:39 | 42.61088 | 26.22420 | 36012 ft | 435 kts | 288° |
| 2026-05-05 18:40 | 42.63033 | 26.14671 | 36009 ft | 435 kts | 288° |
| 2026-05-05 18:40 | 42.64994 | 26.06855 | 36008 ft | 435 kts | 288° |
| 2026-05-05 18:41 | 42.66928 | 25.99130 | 36008 ft | 435 kts | 288° |
| 2026-05-05 18:41 | 42.68876 | 25.91324 | 36008 ft | 435 kts | 288° |
| 2026-05-05 18:42 | 42.70805 | 25.83568 | 36008 ft | 435 kts | 288° |
| 2026-05-05 18:42 | 42.72733 | 25.75788 | 36007 ft | 435 kts | 288° |
| 2026-05-05 18:43 | 42.74638 | 25.68079 | 36008 ft | 435 kts | 288° |
| 2026-05-05 18:43 | 42.76545 | 25.60329 | 36007 ft | 435 kts | 288° |
| 2026-05-05 18:44 | 42.78470 | 25.52483 | 36007 ft | 435 kts | 288° |
| 2026-05-05 18:44 | 42.80368 | 25.44722 | 36007 ft | 435 kts | 288° |
| 2026-05-05 18:45 | 42.82276 | 25.36894 | 36008 ft | 435 kts | 288° |
| 2026-05-05 18:45 | 42.84170 | 25.29079 | 36008 ft | 435 kts | 287° |
| 2026-05-05 18:46 | 42.86039 | 25.21338 | 36008 ft | 435 kts | 287° |
| 2026-05-05 18:46 | 42.87928 | 25.13502 | 36008 ft | 434 kts | 287° |
| 2026-05-05 18:47 | 42.89803 | 25.05708 | 36007 ft | 433 kts | 287° |
| 2026-05-05 18:47 | 42.91689 | 24.97840 | 36009 ft | 433 kts | 287° |
| 2026-05-05 18:48 | 42.93546 | 24.90054 | 36007 ft | 435 kts | 286° |
| 2026-05-05 18:48 | 42.95413 | 24.82198 | 36006 ft | 436 kts | 286° |
| 2026-05-05 18:49 | 42.97269 | 24.74362 | 36006 ft | 437 kts | 286° |
| 2026-05-05 18:49 | 42.99137 | 24.66452 | 36003 ft | 439 kts | 286° |
| 2026-05-05 18:50 | 43.01004 | 24.58520 | 36007 ft | 440 kts | 286° |
| 2026-05-05 18:50 | 43.02855 | 24.50625 | 36006 ft | 441 kts | 286° |
| 2026-05-05 18:51 | 43.04734 | 24.42583 | 36005 ft | 441 kts | 286° |
| 2026-05-05 18:51 | 43.06563 | 24.34734 | 36002 ft | 419 kts | 285° |
| 2026-05-05 18:52 | 43.07433 | 24.30996 | 36004 ft | 404 kts | 286° |
| 2026-05-05 18:52 | 43.08344 | 24.27440 | 36009 ft | 390 kts | 288° |
| 2026-05-05 18:52 | 43.09340 | 24.24070 | 36010 ft | 376 kts | 291° |
| 2026-05-05 18:52 | 43.10426 | 24.20851 | 36013 ft | 362 kts | 294° |
| 2026-05-05 18:53 | 43.11567 | 24.17868 | 36016 ft | 348 kts | 296° |
| 2026-05-05 18:53 | 43.12751 | 24.15079 | 36014 ft | 334 kts | 298° |
| 2026-05-05 18:53 | 43.13946 | 24.12462 | 36011 ft | 319 kts | 299° |
| 2026-05-05 18:53 | 43.15127 | 24.09913 | 35658 ft | 318 kts | 299° |
| 2026-05-05 18:54 | 43.16331 | 24.07325 | 34744 ft | 334 kts | 299° |
| 2026-05-05 18:54 | 43.17612 | 24.04579 | 33788 ft | 349 kts | 299° |
| 2026-05-05 18:54 | 43.18935 | 24.01748 | 32924 ft | 361 kts | 300° |
| 2026-05-05 18:54 | 43.20301 | 23.98839 | 32113 ft | 370 kts | 300° |
| 2026-05-05 18:55 | 43.21705 | 23.95861 | 31348 ft | 378 kts | 300° |
| 2026-05-05 18:55 | 43.23111 | 23.92820 | 30765 ft | 379 kts | 298° |
| 2026-05-05 18:55 | 43.24436 | 23.89766 | 31062 ft | 360 kts | 297° |
| 2026-05-05 18:55 | 43.25664 | 23.86928 | 31622 ft | 346 kts | 296° |
| 2026-05-05 18:56 | 43.27750 | 23.80779 | 31684 ft | 366 kts | 287° |
| 2026-05-05 18:56 | 43.28514 | 23.77447 | 31865 ft | 371 kts | 282° |
| 2026-05-05 18:56 | 43.29071 | 23.73962 | 32046 ft | 375 kts | 277° |
| 2026-05-05 18:57 | 43.29438 | 23.70372 | 32223 ft | 381 kts | 275° |
| 2026-05-05 18:57 | 43.29756 | 23.66752 | 32348 ft | 388 kts | 275° |
| 2026-05-05 18:57 | 43.30079 | 23.63014 | 32480 ft | 395 kts | 275° |
| 2026-05-05 18:57 | 43.30406 | 23.59255 | 32607 ft | 402 kts | 275° |
| 2026-05-05 18:58 | 43.30742 | 23.55417 | 32736 ft | 408 kts | 275° |
| 2026-05-05 18:58 | 43.31086 | 23.51516 | 32865 ft | 413 kts | 275° |
| 2026-05-05 18:58 | 43.31430 | 23.47572 | 32994 ft | 419 kts | 275° |
| 2026-05-05 18:58 | 43.31780 | 23.43567 | 33121 ft | 424 kts | 275° |
| 2026-05-05 18:59 | 43.32127 | 23.39564 | 33250 ft | 428 kts | 275° |
| 2026-05-05 18:59 | 43.32480 | 23.35478 | 33376 ft | 432 kts | 275° |
| 2026-05-05 18:59 | 43.32841 | 23.31321 | 33505 ft | 436 kts | 275° |
| 2026-05-05 18:59 | 43.33196 | 23.27222 | 33632 ft | 439 kts | 275° |
| 2026-05-05 19:00 | 43.33559 | 23.23051 | 33761 ft | 442 kts | 275° |
| 2026-05-05 19:00 | 43.33923 | 23.18847 | 33888 ft | 443 kts | 275° |
| 2026-05-05 19:00 | 43.34286 | 23.14622 | 34013 ft | 444 kts | 275° |
| 2026-05-05 19:00 | 43.34642 | 23.10419 | 34138 ft | 443 kts | 275° |
| 2026-05-05 19:01 | 43.34996 | 23.06210 | 34264 ft | 444 kts | 275° |
| 2026-05-05 19:01 | 43.35349 | 23.02007 | 34390 ft | 444 kts | 275° |
| 2026-05-05 19:01 | 43.35695 | 22.97825 | 34516 ft | 443 kts | 275° |
| 2026-05-05 19:01 | 43.36041 | 22.93593 | 34643 ft | 441 kts | 276° |
| 2026-05-05 19:02 | 43.36386 | 22.89407 | 34768 ft | 440 kts | 276° |
| 2026-05-05 19:02 | 43.36749 | 22.85241 | 34893 ft | 440 kts | 278° |
| 2026-05-05 19:02 | 43.37239 | 22.81134 | 35017 ft | 440 kts | 281° |
| 2026-05-05 19:02 | 43.37897 | 22.76990 | 35143 ft | 440 kts | 285° |
| 2026-05-05 19:03 | 43.38708 | 22.72933 | 35270 ft | 440 kts | 288° |
| 2026-05-05 19:03 | 43.39669 | 22.68967 | 35395 ft | 439 kts | 290° |
| 2026-05-05 19:03 | 43.40738 | 22.65058 | 35521 ft | 439 kts | 291° |
| 2026-05-05 19:03 | 43.41833 | 22.61133 | 35645 ft | 439 kts | 291° |
| 2026-05-05 19:04 | 43.42921 | 22.57238 | 35771 ft | 439 kts | 291° |
| 2026-05-05 19:04 | 43.44015 | 22.53317 | 35896 ft | 438 kts | 291° |
| 2026-05-05 19:04 | 43.46193 | 22.45481 | 35952 ft | 438 kts | 291° |
| 2026-05-05 19:05 | 43.48347 | 22.37667 | 35954 ft | 439 kts | 290° |
| 2026-05-05 19:05 | 43.50205 | 22.29668 | 35955 ft | 438 kts | 287° |
| 2026-05-05 19:06 | 43.51961 | 22.21646 | 35953 ft | 439 kts | 287° |
| 2026-05-05 19:06 | 43.53718 | 22.13582 | 35953 ft | 438 kts | 287° |
| 2026-05-05 19:07 | 43.55464 | 22.05553 | 35957 ft | 439 kts | 287° |
| 2026-05-05 19:07 | 43.57216 | 21.97467 | 35998 ft | 439 kts | 287° |
| 2026-05-05 19:08 | 43.58949 | 21.89439 | 36018 ft | 438 kts | 287° |
| 2026-05-05 19:08 | 43.60686 | 21.81366 | 36030 ft | 438 kts | 287° |
| 2026-05-05 19:09 | 43.62413 | 21.73301 | 36032 ft | 438 kts | 287° |
| 2026-05-05 19:09 | 43.64123 | 21.65294 | 36034 ft | 438 kts | 287° |
| 2026-05-05 19:10 | 43.65848 | 21.57178 | 36036 ft | 438 kts | 287° |
| 2026-05-05 19:10 | 43.67548 | 21.49149 | 36033 ft | 438 kts | 287° |
| 2026-05-05 19:11 | 43.69257 | 21.41053 | 36035 ft | 439 kts | 287° |
| 2026-05-05 19:11 | 43.70960 | 21.32947 | 36035 ft | 438 kts | 286° |
| 2026-05-05 19:12 | 43.72648 | 21.24852 | 36034 ft | 439 kts | 286° |
| 2026-05-05 19:12 | 43.74329 | 21.16773 | 36034 ft | 438 kts | 286° |
| 2026-05-05 19:13 | 43.76009 | 21.08673 | 36036 ft | 437 kts | 287° |
| 2026-05-05 19:13 | 43.77666 | 21.00618 | 36036 ft | 433 kts | 288° |
| 2026-05-05 19:14 | 43.79303 | 20.92638 | 36034 ft | 432 kts | 289° |
| 2026-05-05 19:14 | 43.80941 | 20.84650 | 36033 ft | 432 kts | 290° |
| 2026-05-05 19:15 | 43.82582 | 20.76666 | 36034 ft | 433 kts | 290° |
| 2026-05-05 19:15 | 43.84226 | 20.68628 | 36034 ft | 433 kts | 290° |
| 2026-05-05 19:16 | 43.85851 | 20.60623 | 36034 ft | 433 kts | 290° |
| 2026-05-05 19:16 | 43.87472 | 20.52604 | 36034 ft | 433 kts | 290° |
| 2026-05-05 19:17 | 43.89090 | 20.44564 | 36034 ft | 433 kts | 290° |
| 2026-05-05 19:17 | 43.90694 | 20.36558 | 36034 ft | 433 kts | 290° |
| 2026-05-05 19:18 | 43.92291 | 20.28529 | 36034 ft | 433 kts | 289° |
| 2026-05-05 19:18 | 43.93885 | 20.20488 | 36035 ft | 433 kts | 289° |
| 2026-05-05 19:19 | 43.95482 | 20.12406 | 36034 ft | 433 kts | 289° |
| 2026-05-05 19:19 | 43.97060 | 20.04400 | 36035 ft | 433 kts | 289° |
| 2026-05-05 19:20 | 43.98645 | 19.96327 | 36034 ft | 433 kts | 289° |
| 2026-05-05 19:20 | 44.00225 | 19.88239 | 36034 ft | 433 kts | 289° |
| 2026-05-05 19:21 | 44.01791 | 19.80203 | 36034 ft | 433 kts | 289° |
| 2026-05-05 19:21 | 44.03363 | 19.72095 | 36033 ft | 433 kts | 289° |
| 2026-05-05 19:22 | 44.04922 | 19.64018 | 36033 ft | 433 kts | 289° |
| 2026-05-05 19:22 | 44.06474 | 19.55944 | 36008 ft | 433 kts | 289° |
| 2026-05-05 19:23 | 44.08017 | 19.47885 | 35989 ft | 433 kts | 289° |
| 2026-05-05 19:23 | 44.09562 | 19.39781 | 35994 ft | 434 kts | 289° |
| 2026-05-05 19:24 | 44.11103 | 19.31727 | 36002 ft | 433 kts | 289° |
| 2026-05-05 19:24 | 44.12646 | 19.23603 | 36005 ft | 434 kts | 289° |
| 2026-05-05 19:25 | 44.14157 | 19.15445 | 36009 ft | 433 kts | 289° |
| 2026-05-05 19:25 | 44.15527 | 19.07395 | 36009 ft | 427 kts | 290° |
| 2026-05-05 19:26 | 44.16876 | 18.99379 | 36009 ft | 421 kts | 293° |
| 2026-05-05 19:26 | 44.18187 | 18.91640 | 36007 ft | 416 kts | 294° |
| 2026-05-05 19:27 | 44.19511 | 18.83866 | 36005 ft | 416 kts | 294° |
| 2026-05-05 19:27 | 44.20587 | 18.77507 | 36004 ft | 415 kts | 294° |
| 2026-05-05 19:28 | 44.22097 | 18.68477 | 36002 ft | 414 kts | 294° |
| 2026-05-05 19:28 | 44.23406 | 18.60600 | 36008 ft | 416 kts | 294° |
| 2026-05-05 19:29 | 44.24699 | 18.52787 | 36020 ft | 415 kts | 294° |
| 2026-05-05 19:29 | 44.25993 | 18.44907 | 36025 ft | 416 kts | 294° |
| 2026-05-05 19:30 | 44.27265 | 18.37107 | 36025 ft | 415 kts | 294° |
| 2026-05-05 19:30 | 44.28545 | 18.29221 | 36025 ft | 417 kts | 293° |
| 2026-05-05 19:31 | 44.29585 | 18.21187 | 36023 ft | 424 kts | 288° |
| 2026-05-05 19:31 | 44.30032 | 18.12941 | 36023 ft | 432 kts | 282° |
| 2026-05-05 19:32 | 44.30114 | 18.04540 | 36029 ft | 434 kts | 282° |
| 2026-05-05 19:32 | 44.30175 | 17.96131 | 36043 ft | 435 kts | 282° |
| 2026-05-05 19:33 | 44.30228 | 17.87707 | 36058 ft | 434 kts | 282° |
| 2026-05-05 19:33 | 44.30278 | 17.79251 | 36058 ft | 434 kts | 282° |
| 2026-05-05 19:34 | 44.30321 | 17.70851 | 36057 ft | 434 kts | 282° |
| 2026-05-05 19:35 | 44.30375 | 17.58235 | 36039 ft | 433 kts | 282° |
| 2026-05-05 19:35 | 44.30403 | 17.49879 | 36014 ft | 432 kts | 282° |
| 2026-05-05 19:36 | 44.30423 | 17.41503 | 35995 ft | 434 kts | 282° |
| 2026-05-05 19:36 | 44.30436 | 17.33103 | 35983 ft | 432 kts | 281° |
| 2026-05-05 19:37 | 44.30443 | 17.24707 | 35981 ft | 435 kts | 281° |
| 2026-05-05 19:37 | 44.30438 | 17.16217 | 35981 ft | 435 kts | 281° |
| 2026-05-05 19:38 | 44.30430 | 17.07830 | 35979 ft | 433 kts | 281° |
| 2026-05-05 19:38 | 44.30416 | 16.99427 | 35979 ft | 433 kts | 281° |
| 2026-05-05 19:39 | 44.30522 | 16.91078 | 35981 ft | 424 kts | 285° |
| 2026-05-05 19:39 | 44.31242 | 16.83064 | 35983 ft | 413 kts | 292° |
| 2026-05-05 19:40 | 44.32593 | 16.75372 | 35983 ft | 402 kts | 298° |
| 2026-05-05 19:40 | 44.34504 | 16.68114 | 35990 ft | 394 kts | 303° |
| 2026-05-05 19:41 | 44.36624 | 16.61037 | 36007 ft | 394 kts | 303° |
| 2026-05-05 19:41 | 44.38731 | 16.54019 | 36018 ft | 394 kts | 303° |
| 2026-05-05 19:42 | 44.40854 | 16.46927 | 36024 ft | 394 kts | 303° |
| 2026-05-05 19:42 | 44.42958 | 16.39883 | 36029 ft | 394 kts | 303° |
| 2026-05-05 19:43 | 44.45050 | 16.32855 | 36039 ft | 394 kts | 303° |
| 2026-05-05 19:43 | 44.47146 | 16.25767 | 36050 ft | 395 kts | 302° |
| 2026-05-05 19:44 | 44.49253 | 16.18632 | 36052 ft | 394 kts | 302° |
| 2026-05-05 19:44 | 44.51366 | 16.11468 | 36048 ft | 394 kts | 303° |
| 2026-05-05 19:45 | 44.53466 | 16.04341 | 36041 ft | 393 kts | 302° |
| 2026-05-05 19:45 | 44.55555 | 15.97222 | 36037 ft | 395 kts | 303° |
| 2026-05-05 19:46 | 44.57635 | 15.90122 | 36037 ft | 394 kts | 302° |
| 2026-05-05 19:46 | 44.59739 | 15.82923 | 36036 ft | 395 kts | 302° |
| 2026-05-05 19:47 | 44.61816 | 15.75794 | 36035 ft | 395 kts | 302° |
| 2026-05-05 19:47 | 44.63900 | 15.68616 | 36034 ft | 395 kts | 303° |
| 2026-05-05 19:48 | 44.65972 | 15.61463 | 36036 ft | 394 kts | 303° |
| 2026-05-05 19:48 | 44.68037 | 15.54312 | 36034 ft | 394 kts | 303° |
| 2026-05-05 19:49 | 44.69536 | 15.49108 | 36036 ft | 395 kts | 302° |
| 2026-05-05 19:49 | 44.72109 | 15.40147 | 36036 ft | 395 kts | 303° |
| 2026-05-05 19:50 | 44.74162 | 15.32973 | 36037 ft | 395 kts | 302° |
| 2026-05-05 19:50 | 44.76209 | 15.25759 | 36035 ft | 396 kts | 302° |
| 2026-05-05 19:51 | 44.78260 | 15.18540 | 36036 ft | 396 kts | 302° |
| 2026-05-05 19:51 | 44.80296 | 15.11354 | 36032 ft | 395 kts | 302° |
| 2026-05-05 19:52 | 44.82347 | 15.04124 | 36037 ft | 396 kts | 301° |
| 2026-05-05 19:52 | 44.84383 | 14.96926 | 36036 ft | 395 kts | 300° |
| 2026-05-05 19:53 | 44.86423 | 14.89678 | 36035 ft | 395 kts | 299° |
| 2026-05-05 19:53 | 44.88444 | 14.82463 | 36036 ft | 395 kts | 299° |
| 2026-05-05 19:54 | 44.90455 | 14.75250 | 36035 ft | 396 kts | 299° |
| 2026-05-05 19:54 | 44.92463 | 14.68037 | 36034 ft | 395 kts | 299° |
| 2026-05-05 19:55 | 44.94474 | 14.60797 | 36034 ft | 395 kts | 299° |
| 2026-05-05 19:55 | 44.96486 | 14.53535 | 36034 ft | 395 kts | 299° |
| 2026-05-05 19:56 | 44.98490 | 14.46282 | 36035 ft | 394 kts | 299° |
| 2026-05-05 19:56 | 45.00484 | 14.39043 | 36035 ft | 393 kts | 299° |
| 2026-05-05 19:57 | 45.02459 | 14.31841 | 36035 ft | 393 kts | 298° |
| 2026-05-05 19:57 | 45.04442 | 14.24566 | 36030 ft | 392 kts | 298° |
| 2026-05-05 19:58 | 45.06402 | 14.17368 | 36023 ft | 392 kts | 298° |
| 2026-05-05 19:58 | 45.08368 | 14.10143 | 36014 ft | 391 kts | 298° |
| 2026-05-05 19:59 | 45.10250 | 14.03212 | 36014 ft | 390 kts | 298° |
| 2026-05-05 19:59 | 45.12205 | 13.96073 | 36010 ft | 389 kts | 299° |
| 2026-05-05 20:00 | 45.14137 | 13.88967 | 36007 ft | 389 kts | 298° |
| 2026-05-05 20:00 | 45.16073 | 13.81794 | 36005 ft | 389 kts | 298° |
| 2026-05-05 20:01 | 45.17989 | 13.74657 | 36002 ft | 389 kts | 298° |
| 2026-05-05 20:01 | 45.19900 | 13.67505 | 35999 ft | 389 kts | 298° |
| 2026-05-05 20:02 | 45.21808 | 13.60339 | 35996 ft | 389 kts | 298° |
| 2026-05-05 20:02 | 45.23712 | 13.53163 | 35991 ft | 389 kts | 298° |
| 2026-05-05 20:03 | 45.25596 | 13.46034 | 35987 ft | 389 kts | 298° |
| 2026-05-05 20:03 | 45.27494 | 13.38817 | 35984 ft | 389 kts | 298° |
| 2026-05-05 20:04 | 45.29372 | 13.31657 | 35982 ft | 389 kts | 298° |
| 2026-05-05 20:04 | 45.31128 | 13.24322 | 35981 ft | 394 kts | 294° |
| 2026-05-05 20:05 | 45.32456 | 13.16764 | 35981 ft | 397 kts | 291° |
| 2026-05-05 20:05 | 45.33689 | 13.09148 | 35981 ft | 397 kts | 290° |
| 2026-05-05 20:06 | 45.34916 | 13.01476 | 35981 ft | 398 kts | 289° |
| 2026-05-05 20:06 | 45.36126 | 12.93842 | 35981 ft | 399 kts | 288° |
| 2026-05-05 20:07 | 45.37334 | 12.86122 | 35981 ft | 400 kts | 288° |
| 2026-05-05 20:07 | 45.38539 | 12.78399 | 35981 ft | 399 kts | 288° |
| 2026-05-05 20:08 | 45.39736 | 12.70705 | 35981 ft | 399 kts | 288° |
| 2026-05-05 20:08 | 45.40930 | 12.63000 | 35981 ft | 400 kts | 288° |
| 2026-05-05 20:09 | 45.42117 | 12.55301 | 35981 ft | 400 kts | 288° |
| 2026-05-05 20:09 | 45.43304 | 12.47574 | 35981 ft | 400 kts | 288° |
| 2026-05-05 20:10 | 45.44485 | 12.39850 | 35981 ft | 400 kts | 288° |
| 2026-05-05 20:10 | 45.45660 | 12.32111 | 35981 ft | 400 kts | 288° |
| 2026-05-05 20:11 | 45.46829 | 12.24348 | 35981 ft | 400 kts | 288° |
| 2026-05-05 20:11 | 45.47989 | 12.16624 | 35981 ft | 400 kts | 288° |
| 2026-05-05 20:12 | 45.49144 | 12.08912 | 35981 ft | 400 kts | 288° |
| 2026-05-05 20:12 | 45.50300 | 12.01157 | 35980 ft | 400 kts | 288° |
| 2026-05-05 20:13 | 45.51450 | 11.93406 | 35981 ft | 400 kts | 288° |
| 2026-05-05 20:13 | 45.52587 | 11.85692 | 35980 ft | 394 kts | 288° |
| 2026-05-05 20:14 | 45.53692 | 11.78150 | 35979 ft | 387 kts | 288° |
| 2026-05-05 20:14 | 45.54787 | 11.70663 | 35980 ft | 386 kts | 288° |
| 2026-05-05 20:15 | 45.55878 | 11.63172 | 35982 ft | 386 kts | 288° |
| 2026-05-05 20:15 | 45.56964 | 11.55677 | 35981 ft | 386 kts | 288° |
| 2026-05-05 20:16 | 45.58038 | 11.48207 | 35981 ft | 386 kts | 288° |
| 2026-05-05 20:16 | 45.59110 | 11.40722 | 35981 ft | 386 kts | 288° |
| 2026-05-05 20:17 | 45.60176 | 11.33228 | 35982 ft | 385 kts | 287° |
| 2026-05-05 20:17 | 45.61234 | 11.25713 | 35981 ft | 385 kts | 287° |
| 2026-05-05 20:18 | 45.62283 | 11.18235 | 35981 ft | 385 kts | 287° |
| 2026-05-05 20:18 | 45.62807 | 11.14506 | 35626 ft | 389 kts | 287° |
| 2026-05-05 20:18 | 45.63341 | 11.10712 | 34831 ft | 394 kts | 287° |
| 2026-05-05 20:18 | 45.63843 | 11.06858 | 34076 ft | 397 kts | 285° |
| 2026-05-05 20:19 | 45.64214 | 11.02938 | 33357 ft | 399 kts | 282° |
| 2026-05-05 20:19 | 45.64435 | 10.99024 | 32918 ft | 394 kts | 278° |
| 2026-05-05 20:19 | 45.64516 | 10.95167 | 32569 ft | 388 kts | 276° |
| 2026-05-05 20:19 | 45.64555 | 10.91348 | 31983 ft | 386 kts | 276° |
| 2026-05-05 20:20 | 45.64590 | 10.87473 | 31220 ft | 389 kts | 275° |
| 2026-05-05 20:20 | 45.64622 | 10.83605 | 30403 ft | 393 kts | 274° |
| 2026-05-05 20:20 | 45.64655 | 10.79700 | 29566 ft | 396 kts | 274° |
| 2026-05-05 20:20 | 45.64685 | 10.75758 | 28758 ft | 399 kts | 273° |
| 2026-05-05 20:21 | 45.64711 | 10.71810 | 28230 ft | 401 kts | 273° |
| 2026-05-05 20:21 | 45.64735 | 10.67834 | 28004 ft | 404 kts | 273° |
| 2026-05-05 20:21 | 45.64759 | 10.63813 | 27993 ft | 405 kts | 273° |
| 2026-05-05 20:21 | 45.64781 | 10.59789 | 27988 ft | 405 kts | 273° |
| 2026-05-05 20:22 | 45.64798 | 10.55772 | 27986 ft | 406 kts | 273° |
| 2026-05-05 20:22 | 45.64815 | 10.51758 | 27985 ft | 406 kts | 273° |
| 2026-05-05 20:22 | 45.64842 | 10.47710 | 27985 ft | 405 kts | 274° |
| 2026-05-05 20:22 | 45.64884 | 10.43701 | 27984 ft | 405 kts | 274° |
| 2026-05-05 20:23 | 45.64926 | 10.39687 | 27984 ft | 406 kts | 274° |
| 2026-05-05 20:23 | 45.64965 | 10.35642 | 27984 ft | 405 kts | 274° |
| 2026-05-05 20:23 | 45.65000 | 10.31671 | 27985 ft | 405 kts | 273° |
| 2026-05-05 20:23 | 45.65033 | 10.27587 | 27985 ft | 405 kts | 273° |
| 2026-05-05 20:24 | 45.65063 | 10.23599 | 27985 ft | 405 kts | 273° |
| 2026-05-05 20:24 | 45.65092 | 10.19523 | 27986 ft | 406 kts | 273° |
| 2026-05-05 20:24 | 45.65119 | 10.15494 | 27986 ft | 406 kts | 273° |
| 2026-05-05 20:24 | 45.65144 | 10.11466 | 27987 ft | 406 kts | 273° |
| 2026-05-05 20:25 | 45.65169 | 10.07466 | 27988 ft | 405 kts | 273° |
| 2026-05-05 20:25 | 45.65192 | 10.03422 | 27988 ft | 405 kts | 273° |
| 2026-05-05 20:25 | 45.65213 | 9.99425 | 27988 ft | 404 kts | 273° |
| 2026-05-05 20:25 | 45.65230 | 9.95468 | 27983 ft | 389 kts | 273° |
| 2026-05-05 20:26 | 45.65244 | 9.91649 | 27986 ft | 383 kts | 273° |
| 2026-05-05 20:26 | 45.65260 | 9.87831 | 27986 ft | 382 kts | 273° |
| 2026-05-05 20:26 | 45.65276 | 9.84092 | 27986 ft | 382 kts | 273° |
| 2026-05-05 20:26 | 45.65289 | 9.80268 | 27985 ft | 382 kts | 273° |
| 2026-05-05 20:27 | 45.65301 | 9.76459 | 27985 ft | 382 kts | 273° |
| 2026-05-05 20:27 | 45.65310 | 9.72691 | 27984 ft | 382 kts | 273° |
| 2026-05-05 20:27 | 45.65318 | 9.68906 | 27958 ft | 383 kts | 273° |
| 2026-05-05 20:27 | 45.65326 | 9.65142 | 27696 ft | 381 kts | 273° |
| 2026-05-05 20:28 | 45.65258 | 9.61324 | 27429 ft | 381 kts | 265° |
| 2026-05-05 20:28 | 45.64388 | 9.57777 | 27155 ft | 392 kts | 243° |
| 2026-05-05 20:28 | 45.62504 | 9.54859 | 26907 ft | 404 kts | 223° |
| 2026-05-05 20:28 | 45.60097 | 9.52763 | 26656 ft | 411 kts | 210° |
| 2026-05-05 20:29 | 45.57326 | 9.51666 | 26385 ft | 423 kts | 190° |
| 2026-05-05 20:29 | 45.54396 | 9.52079 | 26126 ft | 435 kts | 167° |
| 2026-05-05 20:29 | 45.51619 | 9.53877 | 25866 ft | 441 kts | 148° |
| 2026-05-05 20:29 | 45.49441 | 9.56963 | 25611 ft | 445 kts | 125° |
| 2026-05-05 20:30 | 45.48085 | 9.60876 | 25379 ft | 444 kts | 111° |
| 2026-05-05 20:30 | 45.47025 | 9.65017 | 25128 ft | 442 kts | 109° |
| 2026-05-05 20:30 | 45.46017 | 9.69106 | 24997 ft | 440 kts | 110° |
| 2026-05-05 20:30 | 45.44969 | 9.73187 | 24991 ft | 440 kts | 110° |
| 2026-05-05 20:31 | 45.43893 | 9.77248 | 24987 ft | 440 kts | 109° |
| 2026-05-05 20:31 | 45.43256 | 9.81482 | 24963 ft | 437 kts | 89° |
| 2026-05-05 20:31 | 45.43717 | 9.85733 | 24974 ft | 430 kts | 66° |
| 2026-05-05 20:31 | 45.45195 | 9.89330 | 24979 ft | 419 kts | 43° |
| 2026-05-05 20:32 | 45.47445 | 9.91802 | 24984 ft | 405 kts | 20° |
| 2026-05-05 20:32 | 45.50082 | 9.92950 | 24988 ft | 393 kts | 2° |
| 2026-05-05 20:32 | 45.52758 | 9.92904 | 24987 ft | 383 kts | 345° |
| 2026-05-05 20:32 | 45.55247 | 9.91760 | 24986 ft | 375 kts | 329° |
| 2026-05-05 20:33 | 45.57347 | 9.89652 | 24985 ft | 369 kts | 313° |
| 2026-05-05 20:33 | 45.58910 | 9.86756 | 24985 ft | 366 kts | 297° |
| 2026-05-05 20:33 | 45.59909 | 9.83430 | 24992 ft | 367 kts | 291° |
| 2026-05-05 20:33 | 45.60794 | 9.80042 | 24988 ft | 366 kts | 290° |
| 2026-05-05 20:34 | 45.61687 | 9.76613 | 24987 ft | 366 kts | 290° |
| 2026-05-05 20:34 | 45.62570 | 9.73243 | 24986 ft | 366 kts | 291° |
| 2026-05-05 20:34 | 45.63475 | 9.69816 | 24985 ft | 366 kts | 291° |
| 2026-05-05 20:34 | 45.64375 | 9.66424 | 24985 ft | 366 kts | 291° |
| 2026-05-05 20:35 | 45.65286 | 9.62993 | 24985 ft | 366 kts | 290° |
| 2026-05-05 20:35 | 45.65877 | 9.59450 | 24968 ft | 368 kts | 274° |
| 2026-05-05 20:35 | 45.65616 | 9.55810 | 24977 ft | 373 kts | 257° |
| 2026-05-05 20:35 | 45.64565 | 9.52440 | 24979 ft | 380 kts | 240° |
| 2026-05-05 20:36 | 45.62757 | 9.49596 | 24978 ft | 390 kts | 223° |
| 2026-05-05 20:36 | 45.60372 | 9.47703 | 24976 ft | 402 kts | 204° |
| 2026-05-05 20:36 | 45.57591 | 9.47012 | 24975 ft | 415 kts | 184° |
| 2026-05-05 20:36 | 45.54704 | 9.47739 | 24974 ft | 427 kts | 163° |
| 2026-05-05 20:37 | 45.52153 | 9.49868 | 24975 ft | 435 kts | 141° |
| 2026-05-05 20:37 | 45.50255 | 9.53195 | 24975 ft | 440 kts | 118° |
| 2026-05-05 20:37 | 45.49063 | 9.57206 | 24992 ft | 440 kts | 110° |
| 2026-05-05 20:37 | 45.48038 | 9.61331 | 24989 ft | 440 kts | 109° |
| 2026-05-05 20:38 | 45.47013 | 9.65467 | 24987 ft | 440 kts | 110° |
| 2026-05-05 20:38 | 45.45954 | 9.69565 | 24986 ft | 440 kts | 110° |
| 2026-05-05 20:38 | 45.44873 | 9.73614 | 24986 ft | 440 kts | 111° |
| 2026-05-05 20:38 | 45.43800 | 9.77712 | 24980 ft | 440 kts | 106° |
| 2026-05-05 20:39 | 45.43407 | 9.81985 | 24965 ft | 436 kts | 84° |
| 2026-05-05 20:39 | 45.44121 | 9.86124 | 24975 ft | 428 kts | 60° |
| 2026-05-05 20:39 | 45.45811 | 9.89516 | 24982 ft | 416 kts | 38° |
| 2026-05-05 20:39 | 45.48159 | 9.91779 | 24986 ft | 403 kts | 18° |
| 2026-05-05 20:40 | 45.50818 | 9.92788 | 24986 ft | 391 kts | 359° |
| 2026-05-05 20:40 | 45.53340 | 9.92584 | 24987 ft | 382 kts | 343° |
| 2026-05-05 20:40 | 45.55777 | 9.91276 | 24986 ft | 374 kts | 326° |
| 2026-05-05 20:40 | 45.57784 | 9.88985 | 24986 ft | 368 kts | 310° |
| 2026-05-05 20:41 | 45.59180 | 9.85996 | 24985 ft | 366 kts | 294° |
| 2026-05-05 20:41 | 45.60127 | 9.82619 | 24991 ft | 366 kts | 290° |
| 2026-05-05 20:41 | 45.61020 | 9.79186 | 24988 ft | 366 kts | 290° |
| 2026-05-05 20:41 | 45.61908 | 9.75775 | 24986 ft | 366 kts | 290° |
| 2026-05-05 20:42 | 45.62808 | 9.72351 | 24986 ft | 366 kts | 291° |
| 2026-05-05 20:42 | 45.63701 | 9.68976 | 24986 ft | 366 kts | 291° |
| 2026-05-05 20:42 | 45.64602 | 9.65579 | 24985 ft | 366 kts | 291° |
| 2026-05-05 20:42 | 45.65495 | 9.62170 | 24983 ft | 366 kts | 288° |
| 2026-05-05 20:43 | 45.65893 | 9.58587 | 24974 ft | 369 kts | 270° |
| 2026-05-05 20:43 | 45.65440 | 9.54984 | 24978 ft | 375 kts | 253° |
| 2026-05-05 20:43 | 45.64199 | 9.51691 | 24978 ft | 383 kts | 237° |
| 2026-05-05 20:43 | 45.62242 | 9.49050 | 24977 ft | 394 kts | 219° |
| 2026-05-05 20:44 | 45.59726 | 9.47410 | 24976 ft | 406 kts | 199° |
| 2026-05-05 20:44 | 45.56891 | 9.47048 | 24972 ft | 418 kts | 179° |
| 2026-05-05 20:44 | 45.54062 | 9.48127 | 24974 ft | 429 kts | 158° |
| 2026-05-05 20:44 | 45.51616 | 9.50593 | 24976 ft | 437 kts | 136° |
| 2026-05-05 20:45 | 45.48806 | 9.58224 | 24991 ft | 440 kts | 110° |
| 2026-05-05 20:45 | 45.47783 | 9.62379 | 24988 ft | 440 kts | 109° |
| 2026-05-05 20:45 | 45.46770 | 9.66429 | 24987 ft | 440 kts | 110° |
| 2026-05-05 20:46 | 45.45705 | 9.70515 | 24986 ft | 440 kts | 111° |
| 2026-05-05 20:46 | 45.44609 | 9.74601 | 24986 ft | 440 kts | 111° |
| 2026-05-05 20:46 | 45.43612 | 9.78705 | 24969 ft | 440 kts | 101° |
| 2026-05-05 20:46 | 45.43487 | 9.83029 | 24970 ft | 435 kts | 78° |
| 2026-05-05 20:47 | 45.44441 | 9.86986 | 24977 ft | 425 kts | 55° |
| 2026-05-05 20:47 | 45.46319 | 9.90146 | 24984 ft | 413 kts | 33° |
| 2026-05-05 20:47 | 45.48749 | 9.92118 | 24986 ft | 400 kts | 14° |
| 2026-05-05 20:47 | 45.51433 | 9.92832 | 24986 ft | 389 kts | 355° |
| 2026-05-05 20:48 | 45.54057 | 9.92305 | 24986 ft | 379 kts | 338° |
| 2026-05-05 20:48 | 45.56382 | 9.90690 | 24986 ft | 372 kts | 321° |
| 2026-05-05 20:48 | 45.58246 | 9.88142 | 24985 ft | 367 kts | 305° |
| 2026-05-05 20:48 | 45.59465 | 9.84993 | 24992 ft | 366 kts | 292° |
| 2026-05-05 20:49 | 45.60385 | 9.81591 | 24989 ft | 366 kts | 290° |
| 2026-05-05 20:49 | 45.61271 | 9.78202 | 24987 ft | 366 kts | 290° |
| 2026-05-05 20:49 | 45.62169 | 9.74774 | 24986 ft | 366 kts | 291° |
| 2026-05-05 20:49 | 45.63047 | 9.71394 | 24984 ft | 366 kts | 288° |
| 2026-05-05 20:50 | 45.63411 | 9.67787 | 24979 ft | 369 kts | 271° |
| 2026-05-05 20:50 | 45.63328 | 9.64152 | 24985 ft | 369 kts | 270° |
| 2026-05-05 20:50 | 45.63232 | 9.60476 | 24985 ft | 369 kts | 270° |
| 2026-05-05 20:50 | 45.63148 | 9.56814 | 24985 ft | 369 kts | 270° |
| 2026-05-05 20:51 | 45.63073 | 9.53174 | 24985 ft | 369 kts | 271° |
| 2026-05-05 20:51 | 45.63003 | 9.49521 | 24985 ft | 369 kts | 271° |
| 2026-05-05 20:51 | 45.62936 | 9.45842 | 24985 ft | 369 kts | 271° |
| 2026-05-05 20:51 | 45.62872 | 9.42202 | 24985 ft | 369 kts | 271° |
| 2026-05-05 20:52 | 45.62807 | 9.38545 | 24979 ft | 367 kts | 271° |
| 2026-05-05 20:52 | 45.62741 | 9.34921 | 24736 ft | 363 kts | 270° |
| 2026-05-05 20:52 | 45.62676 | 9.31304 | 24167 ft | 362 kts | 270° |
| 2026-05-05 20:52 | 45.62612 | 9.27711 | 23588 ft | 362 kts | 270° |
| 2026-05-05 20:53 | 45.62546 | 9.24134 | 23069 ft | 360 kts | 270° |
| 2026-05-05 20:53 | 45.62481 | 9.20662 | 22568 ft | 358 kts | 270° |
| 2026-05-05 20:53 | 45.62412 | 9.17069 | 22184 ft | 353 kts | 269° |
| 2026-05-05 20:53 | 45.62343 | 9.13596 | 21937 ft | 355 kts | 269° |
| 2026-05-05 20:54 | 45.62272 | 9.10088 | 21687 ft | 355 kts | 269° |
| 2026-05-05 20:54 | 45.62201 | 9.06632 | 21440 ft | 355 kts | 269° |
| 2026-05-05 20:54 | 45.62127 | 9.03101 | 21188 ft | 355 kts | 269° |
| 2026-05-05 20:54 | 45.62053 | 8.99570 | 21009 ft | 355 kts | 269° |
| 2026-05-05 20:55 | 45.61979 | 8.96058 | 20993 ft | 356 kts | 270° |
| 2026-05-05 20:55 | 45.61903 | 8.92522 | 20989 ft | 357 kts | 270° |
| 2026-05-05 20:55 | 45.61828 | 8.89011 | 20987 ft | 358 kts | 270° |
| 2026-05-05 20:55 | 45.61554 | 8.85455 | 20963 ft | 362 kts | 255° |
| 2026-05-05 20:56 | 45.60337 | 8.82315 | 20971 ft | 370 kts | 230° |
| 2026-05-05 20:56 | 45.58269 | 8.80122 | 20987 ft | 378 kts | 210° |
| 2026-05-05 20:56 | 45.55775 | 8.78872 | 20976 ft | 384 kts | 192° |
| 2026-05-05 20:56 | 45.53103 | 8.78958 | 20975 ft | 392 kts | 168° |
| 2026-05-05 20:57 | 45.50614 | 8.80621 | 20980 ft | 398 kts | 143° |
| 2026-05-05 20:57 | 45.48806 | 8.83546 | 20982 ft | 400 kts | 119° |
| 2026-05-05 20:57 | 45.47929 | 8.87248 | 20824 ft | 393 kts | 95° |
| 2026-05-05 20:57 | 45.48108 | 8.91057 | 20312 ft | 387 kts | 71° |
| 2026-05-05 20:58 | 45.49108 | 8.94605 | 19787 ft | 383 kts | 62° |
| 2026-05-05 20:58 | 45.50258 | 8.97973 | 19271 ft | 381 kts | 62° |
| 2026-05-05 20:58 | 45.51535 | 9.01300 | 18738 ft | 377 kts | 50° |
| 2026-05-05 20:58 | 45.53402 | 9.03805 | 18235 ft | 368 kts | 28° |
| 2026-05-05 20:59 | 45.55656 | 9.05341 | 18017 ft | 362 kts | 19° |
| 2026-05-05 20:59 | 45.58007 | 9.06681 | 17993 ft | 364 kts | 18° |
| 2026-05-05 20:59 | 45.60360 | 9.08025 | 17989 ft | 364 kts | 19° |
| 2026-05-05 20:59 | 45.62709 | 9.09404 | 17988 ft | 365 kts | 19° |
| 2026-05-05 21:00 | 45.65029 | 9.10791 | 17946 ft | 366 kts | 20° |
| 2026-05-05 21:00 | 45.67398 | 9.11994 | 17668 ft | 360 kts | 7° |
| 2026-05-05 21:00 | 45.69867 | 9.11918 | 17409 ft | 352 kts | 343° |
| 2026-05-05 21:00 | 45.72079 | 9.10564 | 17158 ft | 346 kts | 324° |
| 2026-05-05 21:01 | 45.73799 | 9.08254 | 16906 ft | 341 kts | 305° |
| 2026-05-05 21:01 | 45.74884 | 9.05232 | 16650 ft | 339 kts | 286° |
| 2026-05-05 21:01 | 45.75195 | 9.01983 | 16401 ft | 339 kts | 268° |
| 2026-05-05 21:01 | 45.74724 | 8.98665 | 16143 ft | 340 kts | 249° |
| 2026-05-05 21:02 | 45.73499 | 8.95779 | 15888 ft | 343 kts | 230° |
| 2026-05-05 21:02 | 45.71639 | 8.93627 | 15633 ft | 347 kts | 210° |
| 2026-05-05 21:02 | 45.69444 | 8.92198 | 15392 ft | 347 kts | 204° |
| 2026-05-05 21:02 | 45.67217 | 8.90914 | 15143 ft | 346 kts | 204° |
| 2026-05-05 21:03 | 45.65007 | 8.89642 | 14998 ft | 335 kts | 204° |
| 2026-05-05 21:03 | 45.62922 | 8.88421 | 14988 ft | 318 kts | 204° |
| 2026-05-05 21:03 | 45.60885 | 8.87271 | 14983 ft | 311 kts | 198° |
| 2026-05-05 21:03 | 45.58750 | 8.86889 | 14981 ft | 315 kts | 178° |
| 2026-05-05 21:04 | 45.56609 | 8.87531 | 14984 ft | 317 kts | 159° |
| 2026-05-05 21:04 | 45.54707 | 8.89113 | 14985 ft | 319 kts | 140° |
| 2026-05-05 21:04 | 45.53253 | 8.91460 | 14986 ft | 320 kts | 122° |
| 2026-05-05 21:04 | 45.52378 | 8.94388 | 14987 ft | 320 kts | 102° |
| 2026-05-05 21:05 | 45.52211 | 8.97555 | 14987 ft | 319 kts | 83° |
| 2026-05-05 21:05 | 45.52739 | 9.00578 | 14987 ft | 318 kts | 64° |
| 2026-05-05 21:05 | 45.53908 | 9.03220 | 14987 ft | 316 kts | 46° |
| 2026-05-05 21:05 | 45.55600 | 9.05212 | 14984 ft | 312 kts | 27° |
| 2026-05-05 21:06 | 45.57523 | 9.06498 | 14790 ft | 307 kts | 20° |
| 2026-05-05 21:06 | 45.59528 | 9.07622 | 14409 ft | 308 kts | 19° |
| 2026-05-05 21:06 | 45.61511 | 9.08735 | 14035 ft | 308 kts | 20° |
| 2026-05-05 21:06 | 45.63475 | 9.09873 | 13662 ft | 306 kts | 21° |
| 2026-05-05 21:07 | 45.65437 | 9.11037 | 13285 ft | 304 kts | 21° |
| 2026-05-05 21:07 | 45.67436 | 9.11895 | 12979 ft | 299 kts | 6° |
| 2026-05-05 21:07 | 45.69488 | 9.11878 | 12729 ft | 298 kts | 349° |
| 2026-05-05 21:07 | 45.71443 | 9.10971 | 12478 ft | 295 kts | 331° |
| 2026-05-05 21:08 | 45.73100 | 9.09288 | 12226 ft | 293 kts | 314° |
| 2026-05-05 21:08 | 45.74338 | 9.06963 | 12020 ft | 291 kts | 297° |
| 2026-05-05 21:08 | 45.75034 | 9.04251 | 11995 ft | 292 kts | 281° |
| 2026-05-05 21:08 | 45.75155 | 9.01386 | 11989 ft | 292 kts | 264° |
| 2026-05-05 21:09 | 45.74686 | 8.98575 | 11987 ft | 292 kts | 248° |
| 2026-05-05 21:09 | 45.73654 | 8.96058 | 11986 ft | 293 kts | 231° |
| 2026-05-05 21:09 | 45.72154 | 8.94071 | 11824 ft | 296 kts | 214° |
| 2026-05-05 21:09 | 45.70329 | 8.92728 | 11449 ft | 295 kts | 204° |
| 2026-05-05 21:10 | 45.68451 | 8.91634 | 11076 ft | 294 kts | 202° |
| 2026-05-05 21:10 | 45.66562 | 8.90558 | 10806 ft | 290 kts | 203° |
| 2026-05-05 21:10 | 45.64704 | 8.89478 | 10557 ft | 290 kts | 203° |
| 2026-05-05 21:10 | 45.62848 | 8.88381 | 10307 ft | 289 kts | 204° |
| 2026-05-05 21:11 | 45.60986 | 8.87321 | 10061 ft | 288 kts | 197° |
| 2026-05-05 21:11 | 45.59006 | 8.86915 | 10002 ft | 289 kts | 179° |
| 2026-05-05 21:11 | 45.57019 | 8.87391 | 9992 ft | 291 kts | 162° |
| 2026-05-05 21:11 | 45.55233 | 8.88635 | 9990 ft | 292 kts | 145° |
| 2026-05-05 21:12 | 45.53733 | 8.90621 | 9989 ft | 292 kts | 128° |
| 2026-05-05 21:12 | 45.52723 | 8.93110 | 9989 ft | 292 kts | 110° |
| 2026-05-05 21:12 | 45.52266 | 8.95886 | 9989 ft | 291 kts | 93° |
| 2026-05-05 21:12 | 45.52395 | 8.98774 | 9989 ft | 290 kts | 76° |
| 2026-05-05 21:13 | 45.53096 | 9.01446 | 9989 ft | 289 kts | 59° |
| 2026-05-05 21:13 | 45.54311 | 9.03722 | 9989 ft | 288 kts | 43° |
| 2026-05-05 21:13 | 45.55889 | 9.05373 | 9989 ft | 287 kts | 26° |
| 2026-05-05 21:13 | 45.57697 | 9.06537 | 9992 ft | 287 kts | 21° |
| 2026-05-05 21:14 | 45.59551 | 9.07589 | 9990 ft | 287 kts | 20° |
| 2026-05-05 21:14 | 45.61421 | 9.08656 | 9989 ft | 287 kts | 21° |
| 2026-05-05 21:14 | 45.63251 | 9.09726 | 9989 ft | 287 kts | 21° |
| 2026-05-05 21:14 | 45.65093 | 9.10821 | 9988 ft | 287 kts | 22° |
| 2026-05-05 21:15 | 45.66965 | 9.11770 | 9982 ft | 286 kts | 11° |
| 2026-05-05 21:15 | 45.68780 | 9.11988 | 9985 ft | 286 kts | 355° |
| 2026-05-05 21:15 | 45.70719 | 9.11415 | 9986 ft | 285 kts | 338° |
| 2026-05-05 21:15 | 45.72463 | 9.10058 | 9986 ft | 285 kts | 322° |
| 2026-05-05 21:16 | 45.73844 | 9.08067 | 9986 ft | 284 kts | 305° |
| 2026-05-05 21:16 | 45.74778 | 9.05578 | 9986 ft | 284 kts | 289° |
| 2026-05-05 21:16 | 45.75176 | 9.02833 | 9986 ft | 284 kts | 273° |
| 2026-05-05 21:16 | 45.75013 | 9.00033 | 9986 ft | 284 kts | 256° |
| 2026-05-05 21:17 | 45.74295 | 8.97392 | 9986 ft | 285 kts | 240° |
| 2026-05-05 21:17 | 45.73080 | 8.95148 | 9986 ft | 286 kts | 224° |
| 2026-05-05 21:17 | 45.71482 | 8.93504 | 9986 ft | 287 kts | 207° |
| 2026-05-05 21:17 | 45.69648 | 8.92332 | 9989 ft | 288 kts | 203° |
| 2026-05-05 21:18 | 45.67792 | 8.91268 | 9989 ft | 288 kts | 202° |
| 2026-05-05 21:18 | 45.65951 | 8.90209 | 9988 ft | 288 kts | 203° |
| 2026-05-05 21:18 | 45.64087 | 8.89117 | 9988 ft | 288 kts | 203° |
| 2026-05-05 21:18 | 45.62236 | 8.88017 | 9724 ft | 290 kts | 204° |
| 2026-05-05 21:19 | 45.60374 | 8.87088 | 9347 ft | 289 kts | 192° |
| 2026-05-05 21:19 | 45.58375 | 8.86948 | 8998 ft | 287 kts | 172° |
| 2026-05-05 21:19 | 45.56475 | 8.87676 | 8753 ft | 285 kts | 157° |
| 2026-05-05 21:19 | 45.54791 | 8.89104 | 8505 ft | 285 kts | 140° |
| 2026-05-05 21:20 | 45.53442 | 8.91177 | 8254 ft | 284 kts | 124° |
| 2026-05-05 21:20 | 45.52290 | 8.93462 | 8022 ft | 283 kts | 135° |
| 2026-05-05 21:20 | 45.50597 | 8.94818 | 7990 ft | 282 kts | 169° |
| 2026-05-05 21:20 | 45.48684 | 8.94657 | 7993 ft | 278 kts | 199° |
| 2026-05-05 21:21 | 45.46917 | 8.93731 | 7957 ft | 264 kts | 195° |
| 2026-05-05 21:21 | 45.45126 | 8.93535 | 7688 ft | 260 kts | 178° |
| 2026-05-05 21:21 | 45.43331 | 8.93660 | 7421 ft | 256 kts | 178° |
| 2026-05-05 21:21 | 45.41567 | 8.93780 | 7162 ft | 252 kts | 178° |
| 2026-05-05 21:22 | 45.39823 | 8.93899 | 6907 ft | 248 kts | 177° |
| 2026-05-05 21:22 | 45.38121 | 8.94156 | 6644 ft | 245 kts | 171° |
| 2026-05-05 21:22 | 45.36467 | 8.94583 | 6350 ft | 244 kts | 169° |
| 2026-05-05 21:22 | 45.34803 | 8.95046 | 6116 ft | 240 kts | 169° |
| 2026-05-05 21:23 | 45.33148 | 8.95505 | 6051 ft | 242 kts | 169° |
| 2026-05-05 21:23 | 45.31529 | 8.96106 | 5992 ft | 243 kts | 153° |
| 2026-05-05 21:23 | 45.30259 | 8.97638 | 5936 ft | 241 kts | 121° |
| 2026-05-05 21:23 | 45.29734 | 8.99841 | 5870 ft | 240 kts | 91° |
| 2026-05-05 21:24 | 45.30057 | 9.02171 | 5446 ft | 242 kts | 60° |
| 2026-05-05 21:24 | 45.31153 | 9.03923 | 5081 ft | 241 kts | 37° |
| 2026-05-05 21:24 | 45.32402 | 9.05527 | 4691 ft | 244 kts | 54° |
| 2026-05-05 21:24 | 45.33015 | 9.07776 | 4309 ft | 245 kts | 85° |
| 2026-05-05 21:25 | 45.32739 | 9.10075 | 4019 ft | 239 kts | 116° |
| 2026-05-05 21:25 | 45.31673 | 9.11811 | 3761 ft | 233 kts | 149° |
| 2026-05-05 21:25 | 45.30135 | 9.12486 | 3516 ft | 233 kts | 175° |
| 2026-05-05 21:25 | 45.28530 | 9.12513 | 3270 ft | 232 kts | 181° |
| 2026-05-05 21:26 | 45.26913 | 9.12406 | 3044 ft | 230 kts | 182° |
| 2026-05-05 21:26 | 45.25323 | 9.12275 | 3001 ft | 231 kts | 183° |
| 2026-05-05 21:26 | 45.23719 | 9.12137 | 2995 ft | 231 kts | 183° |
| 2026-05-05 21:26 | 45.22104 | 9.11997 | 2992 ft | 231 kts | 183° |
| 2026-05-05 21:27 | 45.20512 | 9.11859 | 2991 ft | 231 kts | 184° |
| 2026-05-05 21:27 | 45.18962 | 9.11295 | 2975 ft | 231 kts | 211° |
| 2026-05-05 21:27 | 45.17835 | 9.09704 | 3087 ft | 231 kts | 237° |
| 2026-05-05 21:27 | 45.17017 | 9.07742 | 3339 ft | 232 kts | 242° |
| 2026-05-05 21:28 | 45.16268 | 9.05739 | 3582 ft | 227 kts | 243° |
| 2026-05-05 21:28 | 45.15539 | 9.03754 | 3833 ft | 224 kts | 243° |
| 2026-05-05 21:28 | 45.14821 | 9.01802 | 3978 ft | 224 kts | 243° |
| 2026-05-05 21:28 | 45.14157 | 8.99815 | 3973 ft | 223 kts | 256° |
| 2026-05-05 21:29 | 45.14158 | 8.97670 | 3974 ft | 220 kts | 291° |
| 2026-05-05 21:29 | 45.14927 | 8.95842 | 3990 ft | 219 kts | 310° |
| 2026-05-05 21:29 | 45.15923 | 8.94183 | 3990 ft | 218 kts | 313° |
| 2026-05-05 21:29 | 45.16931 | 8.92596 | 3990 ft | 218 kts | 313° |
| 2026-05-05 21:30 | 45.17944 | 8.91015 | 3982 ft | 210 kts | 313° |
| 2026-05-05 21:30 | 45.18918 | 8.89498 | 3987 ft | 207 kts | 313° |
| 2026-05-05 21:30 | 45.19876 | 8.88004 | 3989 ft | 207 kts | 313° |
| 2026-05-05 21:30 | 45.20851 | 8.86483 | 3988 ft | 205 kts | 313° |
| 2026-05-05 21:31 | 45.21761 | 8.85062 | 4059 ft | 184 kts | 313° |
| 2026-05-05 21:31 | 45.22601 | 8.83746 | 4012 ft | 175 kts | 313° |
| 2026-05-05 21:31 | 45.23416 | 8.82466 | 4000 ft | 175 kts | 313° |
| 2026-05-05 21:31 | 45.24249 | 8.81211 | 3991 ft | 174 kts | 321° |
| 2026-05-05 21:32 | 45.25359 | 8.80632 | 3973 ft | 173 kts | 0° |
| 2026-05-05 21:32 | 45.26555 | 8.80846 | 3997 ft | 174 kts | 11° |
| 2026-05-05 21:32 | 45.27731 | 8.81219 | 3993 ft | 174 kts | 13° |
| 2026-05-05 21:32 | 45.28907 | 8.81618 | 3991 ft | 174 kts | 13° |
| 2026-05-05 21:33 | 45.30077 | 8.82019 | 3991 ft | 174 kts | 13° |
| 2026-05-05 21:33 | 45.31267 | 8.82230 | 3983 ft | 173 kts | 355° |
| 2026-05-05 21:33 | 45.32462 | 8.81961 | 3994 ft | 174 kts | 348° |
| 2026-05-05 21:33 | 45.33640 | 8.81599 | 3992 ft | 174 kts | 347° |
| 2026-05-05 21:34 | 45.34817 | 8.81227 | 3991 ft | 174 kts | 348° |
| 2026-05-05 21:34 | 45.36004 | 8.80861 | 3991 ft | 174 kts | 348° |
| 2026-05-05 21:34 | 45.37192 | 8.80505 | 3990 ft | 174 kts | 348° |
| 2026-05-05 21:34 | 45.38366 | 8.80164 | 3990 ft | 174 kts | 349° |
| 2026-05-05 21:35 | 45.39554 | 8.79825 | 3990 ft | 174 kts | 349° |
| 2026-05-05 21:35 | 45.40733 | 8.79494 | 3990 ft | 174 kts | 349° |
| 2026-05-05 21:35 | 45.41927 | 8.79163 | 3990 ft | 174 kts | 349° |
| 2026-05-05 21:35 | 45.43104 | 8.78839 | 3990 ft | 174 kts | 349° |
| 2026-05-05 21:36 | 45.44300 | 8.78510 | 3990 ft | 174 kts | 349° |
| 2026-05-05 21:36 | 45.45482 | 8.78186 | 3873 ft | 174 kts | 349° |
| 2026-05-05 21:36 | 45.46668 | 8.77861 | 3654 ft | 173 kts | 349° |
| 2026-05-05 21:36 | 45.47850 | 8.77536 | 3424 ft | 172 kts | 349° |
| 2026-05-05 21:37 | 45.49010 | 8.77217 | 3198 ft | 172 kts | 349° |
| 2026-05-05 21:37 | 45.50186 | 8.76893 | 2969 ft | 171 kts | 349° |
| 2026-05-05 21:37 | 45.51343 | 8.76574 | 2742 ft | 170 kts | 349° |
| 2026-05-05 21:37 | 45.52506 | 8.76254 | 2515 ft | 170 kts | 349° |
| 2026-05-05 21:38 | 45.53658 | 8.75936 | 2318 ft | 168 kts | 349° |
| 2026-05-05 21:38 | 45.54770 | 8.75629 | 2089 ft | 156 kts | 349° |
| 2026-05-05 21:38 | 45.55779 | 8.75352 | 1859 ft | 142 kts | 349° |
| 2026-05-05 21:38 | 45.56679 | 8.75104 | 1662 ft | 133 kts | 349° |
| 2026-05-05 21:39 | 45.57585 | 8.74853 | 1506 ft | 133 kts | 350° |
| 2026-05-05 21:39 | 45.58495 | 8.74602 | 1339 ft | 132 kts | 350° |
| 2026-05-05 21:39 | 45.59393 | 8.74351 | 1168 ft | 132 kts | 349° |
| 2026-05-05 21:39 | 45.60294 | 8.74103 | 994 ft | 131 kts | 350° |
| 2026-05-05 21:40 | 45.61190 | 8.73860 | 829 ft | 130 kts | 349° |
| 2026-05-05 21:40 | 45.62080 | 8.73621 | 710 ft | 124 kts | 349° |
| 2026-05-05 21:40 | 45.62773 | 8.73426 | 725 ft | 71 kts | 348° |
| 2026-05-05 21:40 | 45.63063 | 8.73324 | 731 ft | 27 kts | 334° |
| 2026-05-05 21:41 | 45.63197 | 8.73190 | 735 ft | 18 kts | 317° |
| 2026-05-05 21:41 | 45.63259 | 8.73082 | 737 ft | 10 kts | 304° |
| 2026-05-05 21:41 | 45.63294 | 8.73006 | 738 ft | 8 kts | 303° |
| 2026-05-05 21:41 | 45.63318 | 8.72954 | 739 ft | 5 kts | 303° |
| 2026-05-05 21:42 | 45.63335 | 8.72916 | 740 ft | 2 kts | 304° |
| 2026-05-05 21:42 | 45.63341 | 8.72905 | 740 ft | 1 kts | 304° |
| 2026-05-05 21:42 | 45.63348 | 8.72888 | 740 ft | 2 kts | 304° |
| 2026-05-05 21:42 | 45.63360 | 8.72864 | 740 ft | 3 kts | 304° |
| 2026-05-05 21:43 | 45.63374 | 8.72833 | 741 ft | 4 kts | 304° |
| 2026-05-05 21:43 | 45.63393 | 8.72788 | 742 ft | 6 kts | 299° |
| 2026-05-05 21:43 | 45.63406 | 8.72717 | 742 ft | 8 kts | 279° |
| 2026-05-05 21:43 | 45.63405 | 8.72618 | 743 ft | 11 kts | 259° |
| 2026-05-05 21:44 | 45.63388 | 8.72493 | 743 ft | 14 kts | 259° |
| 2026-05-05 21:44 | 45.63368 | 8.72341 | 744 ft | 16 kts | 259° |
| 2026-05-05 21:44 | 45.63345 | 8.72166 | 744 ft | 18 kts | 259° |
| 2026-05-05 21:44 | 45.63329 | 8.72051 | 744 ft | 7 kts | 259° |
| 2026-05-05 21:45 | 45.63322 | 8.72000 | 744 ft | 3 kts | 256° |
| 2026-05-05 21:45 | 45.63312 | 8.71933 | 744 ft | 11 kts | 262° |
| 2026-05-05 21:45 | 45.63300 | 8.71820 | 745 ft | 12 kts | 258° |
| 2026-05-05 21:45 | 45.63280 | 8.71701 | 745 ft | 8 kts | 253° |
| 2026-05-05 21:46 | 45.63253 | 8.71657 | 744 ft | 5 kts | 215° |
| 2026-05-05 21:46 | 45.63195 | 8.71591 | 743 ft | 12 kts | 234° |
| 2026-05-05 21:46 | 45.63179 | 8.71557 | 742 ft | 3 kts | 234° |
| 2026-05-05 21:46 | 45.63172 | 8.71545 | 742 ft | 0 kts | 232° |